createdAt,value
2022-08-21T04:02:34.642Z,8.30
2022-08-21T04:05:01.498Z,8.65
2022-08-21T04:07:28.350Z,8.23
2022-08-21T04:09:55.293Z,7.60
2022-08-21T04:12:22.377Z,7.60
2022-08-21T04:14:49.194Z,7.43
2022-08-21T04:17:16.120Z,7.65
2022-08-21T04:19:42.944Z,7.57
2022-08-21T04:22:09.917Z,8.32
2022-08-21T04:24:37.006Z,7.60
2022-08-21T04:27:03.974Z,8.77
2022-08-21T04:29:30.762Z,7.90
2022-08-21T04:31:57.721Z,7.70
2022-08-21T04:34:24.554Z,7.90
2022-08-21T04:36:51.428Z,7.28
2022-08-21T04:39:18.343Z,7.95
2022-08-21T04:41:45.109Z,7.60
2022-08-21T04:44:11.941Z,8.93
2022-08-21T04:46:38.991Z,8.38
2022-08-21T04:49:06.154Z,8.13
2022-08-21T04:51:37.728Z,8.13
2022-08-21T04:54:15.774Z,7.63
2022-08-21T04:56:54.838Z,8.40
2022-08-21T04:59:33.609Z,8.25
2022-08-21T05:02:01.815Z,7.28
2022-08-21T05:04:33.973Z,8.23
2022-08-21T05:07:07.071Z,6.95
2022-08-21T05:09:35.361Z,7.53
2022-08-21T05:12:07.130Z,6.90
2022-08-21T05:14:34.426Z,7.85
2022-08-21T05:17:02.069Z,7.35
2022-08-21T05:19:28.961Z,7.30
2022-08-21T05:21:56.205Z,8.03
2022-08-21T05:24:23.012Z,7.90
2022-08-21T05:26:49.885Z,7.20
2022-08-21T05:29:18.902Z,7.72
2022-08-21T05:31:47.447Z,7.53
2022-08-21T05:34:25.030Z,8.50
2022-08-21T05:36:52.155Z,7.15
2022-08-21T05:39:18.975Z,7.75
2022-08-21T05:41:45.932Z,7.57
2022-08-21T05:44:12.947Z,8.10
2022-08-21T05:46:39.796Z,7.37
2022-08-21T05:49:07.037Z,6.75
2022-08-21T05:51:33.959Z,7.03
2022-08-21T05:54:00.866Z,7.22
2022-08-21T05:56:27.795Z,7.38
2022-08-21T05:58:56.534Z,6.97
2022-08-21T06:01:23.421Z,7.25
2022-08-21T06:03:50.444Z,6.90
2022-08-21T06:06:18.379Z,6.97
2022-08-21T06:08:45.636Z,6.45
2022-08-21T06:11:12.713Z,6.70
2022-08-21T06:13:40.039Z,6.72
2022-08-21T06:16:15.865Z,7.80
2022-08-21T06:18:45.633Z,7.53
2022-08-21T06:21:14.472Z,6.35
2022-08-21T06:23:43.640Z,6.07
2022-08-21T06:26:12.885Z,7.30
2022-08-21T06:28:40.482Z,7.28
2022-08-21T06:31:20.247Z,6.72
2022-08-21T06:33:48.152Z,6.65
2022-08-21T06:36:15.903Z,7.30
2022-08-21T06:38:50.925Z,6.03
2022-08-21T06:41:24.340Z,5.65
2022-08-21T06:43:54.985Z,5.47
2022-08-21T06:46:22.062Z,6.63
2022-08-21T06:48:49.093Z,6.67
2022-08-21T06:51:16.213Z,6.68
2022-08-21T06:53:43.140Z,6.68
2022-08-21T06:56:09.965Z,6.55
2022-08-21T06:58:36.859Z,6.03
2022-08-21T07:01:04.724Z,6.63
2022-08-21T07:03:35.526Z,6.28
2022-08-21T07:06:03.210Z,6.85
2022-08-21T07:08:30.431Z,5.68
2022-08-21T07:11:00.036Z,6.63
2022-08-21T07:13:28.161Z,6.87
2022-08-21T07:15:55.041Z,6.07
2022-08-21T07:18:22.313Z,5.90
2022-08-21T07:20:49.492Z,6.00
2022-08-21T07:23:25.648Z,6.30
2022-08-21T07:25:52.697Z,6.20
2022-08-21T07:28:19.579Z,6.80
2022-08-21T07:30:46.929Z,6.22
2022-08-21T07:33:13.887Z,5.57
2022-08-21T07:35:40.736Z,5.78
2022-08-21T07:38:07.589Z,6.43
2022-08-21T07:40:34.662Z,6.60
2022-08-21T07:43:01.605Z,6.53
2022-08-21T07:45:28.918Z,6.53
2022-08-21T07:47:57.582Z,5.68
2022-08-21T07:50:25.640Z,6.93
2022-08-21T07:52:52.668Z,7.15
2022-08-21T07:55:21.157Z,5.72
2022-08-21T07:57:48.689Z,6.18
2022-08-21T08:00:23.153Z,5.90
2022-08-21T08:02:51.817Z,6.10
2022-08-21T08:05:22.859Z,6.63
2022-08-21T08:07:49.871Z,5.65
2022-08-21T08:10:17.278Z,6.10
2022-08-21T08:12:45.308Z,5.53
2022-08-21T08:15:20.727Z,4.83
2022-08-21T08:17:48.802Z,6.32
2022-08-21T08:20:19.170Z,5.30
2022-08-21T08:22:50.162Z,5.68
2022-08-21T08:25:19.819Z,5.57
2022-08-21T08:27:48.872Z,6.00
2022-08-21T08:30:19.376Z,5.88
2022-08-21T08:32:48.120Z,4.88
2022-08-21T08:35:15.600Z,5.80
2022-08-21T08:37:43.842Z,6.22
2022-08-21T08:40:26.210Z,6.00
2022-08-21T08:42:53.526Z,6.05
2022-08-21T08:45:24.822Z,5.55
2022-08-21T08:48:03.655Z,5.50
2022-08-21T08:51:15.374Z,5.28
2022-08-21T08:54:09.188Z,5.10
2022-08-21T08:56:36.997Z,5.43
2022-08-21T08:59:20.943Z,5.60
2022-08-21T09:01:47.954Z,4.50
2022-08-21T09:04:22.381Z,4.53
2022-08-21T09:06:52.952Z,4.80
2022-08-21T09:09:35.243Z,5.15
2022-08-21T09:12:27.192Z,4.40
2022-08-21T09:15:07.783Z,4.72
2022-08-21T09:18:07.724Z,4.65
2022-08-21T09:21:02.978Z,3.87
2022-08-21T09:23:50.566Z,4.63
2022-08-21T09:26:22.161Z,4.65
2022-08-21T09:28:59.003Z,3.85
2022-08-21T09:31:35.130Z,4.40
2022-08-21T09:34:07.748Z,4.27
2022-08-21T09:36:42.129Z,4.45
2022-08-21T09:39:11.220Z,3.88
2022-08-21T09:41:39.311Z,4.65
2022-08-21T09:44:08.833Z,3.63
2022-08-21T09:46:37.256Z,3.30
2022-08-21T09:49:06.808Z,4.13
2022-08-21T09:51:38.011Z,3.58
2022-08-21T09:54:07.786Z,3.63
2022-08-21T09:56:57.330Z,3.95
2022-08-21T09:59:37.065Z,3.57
2022-08-21T10:02:28.648Z,3.65
2022-08-21T10:05:01.464Z,3.47
2022-08-21T10:07:31.758Z,3.47
2022-08-21T10:10:05.841Z,3.33
2022-08-21T10:12:42.613Z,4.17
2022-08-21T10:15:26.100Z,3.45
2022-08-21T10:18:11.551Z,3.47
2022-08-21T10:20:57.418Z,3.67
2022-08-21T10:23:46.492Z,3.10
2022-08-21T10:26:37.061Z,3.10
2022-08-21T10:29:10.372Z,3.58
2022-08-21T10:31:55.862Z,3.28
2022-08-21T10:34:28.661Z,3.88
2022-08-21T10:37:16.159Z,2.80
2022-08-21T10:40:08.109Z,2.80
2022-08-21T10:42:53.513Z,2.75
2022-08-21T10:45:49.301Z,3.00
2022-08-21T10:48:37.207Z,2.45
2022-08-21T10:51:29.377Z,2.92
2022-08-21T10:53:59.291Z,2.83
2022-08-21T10:56:30.546Z,2.70
2022-08-21T10:59:04.232Z,3.72
2022-08-21T11:01:47.855Z,2.97
2022-08-21T11:04:17.748Z,3.05
2022-08-21T11:06:51.051Z,2.88
2022-08-21T11:09:21.703Z,3.07
2022-08-21T11:12:11.385Z,3.30
2022-08-21T11:14:50.008Z,2.80
2022-08-21T11:17:22.267Z,2.15
2022-08-21T11:20:19.485Z,2.30
2022-08-21T11:23:01.507Z,2.53
2022-08-21T11:25:41.737Z,2.03
2022-08-21T11:28:21.784Z,3.17
2022-08-21T11:31:10.916Z,3.10
2022-08-21T11:34:04.550Z,2.47
2022-08-21T11:36:57.764Z,2.50
2022-08-21T11:40:03.023Z,2.53
2022-08-21T11:43:00.321Z,2.65
2022-08-21T11:45:52.847Z,2.90
2022-08-21T11:48:45.791Z,3.00
2022-08-21T11:51:18.842Z,3.03
2022-08-21T11:54:29.916Z,2.17
2022-08-21T11:57:04.389Z,2.83
2022-08-21T11:59:41.616Z,2.30
2022-08-21T12:02:15.908Z,2.45
2022-08-21T12:05:08.241Z,1.70
2022-08-21T12:07:43.098Z,2.58
2022-08-21T12:10:21.972Z,3.30
2022-08-21T12:12:49.137Z,2.42
2022-08-21T12:15:18.071Z,2.83
2022-08-21T12:17:58.454Z,1.93
2022-08-21T12:20:50.168Z,2.50
2022-08-21T12:23:26.803Z,1.90
2022-08-21T12:26:05.042Z,2.45
2022-08-21T12:28:32.769Z,2.88
2022-08-21T12:31:01.878Z,2.90
2022-08-21T12:33:42.044Z,2.40
2022-08-21T12:36:15.717Z,2.63
2022-08-21T12:38:54.971Z,2.35
2022-08-21T12:41:44.961Z,2.38
2022-08-21T12:44:16.219Z,2.65
2022-08-21T12:47:17.820Z,3.07
2022-08-21T12:50:00.095Z,2.37
2022-08-21T12:53:01.080Z,2.92
2022-08-21T12:55:34.210Z,2.05
2022-08-21T12:58:01.783Z,2.90
2022-08-21T13:00:30.603Z,2.33
2022-08-21T13:02:58.452Z,2.33
2022-08-21T13:05:37.122Z,2.20
2022-08-21T13:08:10.272Z,2.53
2022-08-21T13:10:38.529Z,2.83
2022-08-21T13:13:12.584Z,3.28
2022-08-21T13:15:47.634Z,2.07
2022-08-21T13:18:24.065Z,2.97
2022-08-21T13:20:52.260Z,2.53
2022-08-21T13:23:28.064Z,2.70
2022-08-21T13:25:56.186Z,2.22
2022-08-21T13:28:23.607Z,2.83
2022-08-21T13:30:55.580Z,2.53
2022-08-21T13:33:37.477Z,2.50
2022-08-21T13:36:16.143Z,3.20
2022-08-21T13:38:45.187Z,2.45
2022-08-21T13:41:34.926Z,2.60
2022-08-21T13:44:23.068Z,2.33
2022-08-21T13:46:51.924Z,2.67
2022-08-21T13:49:22.220Z,3.08
2022-08-21T13:51:49.312Z,3.00
2022-08-21T13:54:35.477Z,1.88
2022-08-21T13:57:02.371Z,2.45
2022-08-21T13:59:36.441Z,2.33
2022-08-21T14:02:19.853Z,2.90
2022-08-21T14:05:01.106Z,2.33
2022-08-21T14:07:34.184Z,3.10
2022-08-21T14:10:14.073Z,3.05
2022-08-21T14:12:57.100Z,2.50
2022-08-21T14:15:29.623Z,2.47
2022-08-21T14:18:10.575Z,2.97
2022-08-21T14:20:38.231Z,2.65
2022-08-21T14:23:05.116Z,2.75
2022-08-21T14:25:43.748Z,2.78
2022-08-21T14:28:28.711Z,3.05
2022-08-21T14:31:19.993Z,2.47
2022-08-21T14:33:46.904Z,2.80
2022-08-21T14:36:14.375Z,2.65
2022-08-21T14:38:42.050Z,2.08
2022-08-21T14:41:18.248Z,3.28
2022-08-21T14:43:47.338Z,2.70
2022-08-21T14:46:21.359Z,2.78
2022-08-21T14:48:48.248Z,2.85
2022-08-21T14:51:15.482Z,2.53
2022-08-21T14:53:42.377Z,2.67
2022-08-21T14:56:09.630Z,2.87
2022-08-21T14:58:39.255Z,2.35
2022-08-21T15:01:08.491Z,2.75
2022-08-21T15:03:35.920Z,2.42
2022-08-21T15:06:04.073Z,2.65
2022-08-21T15:08:31.287Z,2.43
2022-08-21T15:11:11.449Z,2.20
2022-08-21T15:13:40.046Z,2.17
2022-08-21T15:16:08.515Z,2.88
2022-08-21T15:18:35.487Z,2.53
2022-08-21T15:21:02.444Z,2.13
2022-08-21T15:23:29.424Z,2.70
2022-08-21T15:25:58.518Z,2.83
2022-08-21T15:28:31.835Z,2.58
2022-08-21T15:31:01.171Z,2.22
2022-08-21T15:33:32.093Z,2.22
2022-08-21T15:35:59.170Z,2.57
2022-08-21T15:38:26.657Z,2.58
2022-08-21T15:40:57.028Z,2.80
2022-08-21T15:43:33.806Z,2.42
2022-08-21T15:46:01.456Z,2.42
2022-08-21T15:48:29.007Z,3.00
2022-08-21T15:50:55.954Z,2.38
2022-08-21T15:53:22.888Z,2.72
2022-08-21T15:55:49.695Z,2.80
2022-08-21T15:58:17.648Z,3.10
2022-08-21T16:00:46.030Z,2.43
2022-08-21T16:03:17.702Z,2.63
2022-08-21T16:05:50.015Z,3.17
2022-08-21T16:08:17.377Z,2.33
2022-08-21T16:10:44.192Z,3.13
2022-08-21T16:13:29.685Z,4.35
2022-08-21T16:15:56.844Z,3.00
2022-08-21T16:18:24.393Z,2.43
2022-08-21T16:20:51.293Z,2.70
2022-08-21T16:23:18.699Z,2.95
2022-08-21T16:25:46.085Z,3.15
2022-08-21T16:28:18.980Z,3.22
2022-08-21T16:30:49.532Z,3.17
2022-08-21T16:33:28.726Z,2.25
2022-08-21T16:35:55.596Z,3.15
2022-08-21T16:38:22.604Z,2.17
2022-08-21T16:40:49.459Z,2.88
2022-08-21T16:43:16.717Z,3.03
2022-08-21T16:45:44.059Z,2.40
2022-08-21T16:48:11.261Z,2.90
2022-08-21T16:50:38.686Z,2.60
2022-08-21T16:53:07.076Z,3.33
2022-08-21T16:55:38.334Z,2.97
2022-08-21T16:58:10.660Z,3.17
2022-08-21T17:00:37.670Z,2.00
2022-08-21T17:03:04.709Z,2.85
2022-08-21T17:05:31.912Z,2.95
2022-08-21T17:07:59.094Z,3.83
2022-08-21T17:10:25.980Z,2.55
2022-08-21T17:13:01.620Z,3.33
2022-08-21T17:15:37.710Z,3.05
2022-08-21T17:18:08.149Z,2.80
2022-08-21T17:20:35.394Z,2.77
2022-08-21T17:23:05.369Z,2.42
2022-08-21T17:25:32.331Z,3.40
2022-08-21T17:27:59.761Z,3.05
2022-08-21T17:30:26.924Z,3.42
2022-08-21T17:32:57.684Z,3.07
2022-08-21T17:35:24.878Z,3.08
2022-08-21T17:37:53.476Z,2.97
2022-08-21T17:40:20.927Z,3.80
2022-08-21T17:42:49.123Z,3.42
2022-08-21T17:45:19.681Z,2.90
2022-08-21T17:47:47.299Z,2.72
2022-08-21T17:50:16.808Z,3.35
2022-08-21T17:52:50.066Z,3.00
2022-08-21T17:55:17.527Z,3.25
2022-08-21T17:57:45.764Z,2.83
2022-08-21T18:00:15.521Z,3.70
2022-08-21T18:02:44.701Z,3.20
2022-08-21T18:05:13.708Z,3.50
2022-08-21T18:07:41.927Z,2.88
2022-08-21T18:10:12.006Z,2.90
2022-08-21T18:12:45.531Z,2.60
2022-08-21T18:15:18.093Z,4.03
2022-08-21T18:17:47.822Z,3.10
2022-08-21T18:20:19.607Z,3.40
2022-08-21T18:22:46.753Z,2.97
2022-08-21T18:25:13.969Z,3.58
2022-08-21T18:27:45.691Z,3.28
2022-08-21T18:30:20.188Z,3.58
2022-08-21T18:32:48.331Z,3.83
2022-08-21T18:35:16.624Z,2.87
2022-08-21T18:37:43.919Z,4.30
2022-08-21T18:40:11.578Z,2.97
2022-08-21T18:42:55.035Z,3.50
2022-08-21T18:45:27.056Z,3.05
2022-08-21T18:47:57.120Z,3.00
2022-08-21T18:50:27.062Z,3.35
2022-08-21T18:52:54.621Z,3.22
2022-08-21T18:55:24.426Z,3.53
2022-08-21T18:57:56.253Z,2.95
2022-08-21T19:00:31.785Z,3.50
2022-08-21T19:03:01.002Z,3.33
2022-08-21T19:05:28.464Z,3.42
2022-08-21T19:07:56.215Z,3.45
2022-08-21T19:10:27.641Z,3.35
2022-08-21T19:13:00.241Z,3.60
2022-08-21T19:15:29.956Z,3.90
2022-08-21T19:17:58.052Z,4.13
2022-08-21T19:20:35.020Z,3.05
2022-08-21T19:23:07.405Z,2.90
2022-08-21T19:26:00.494Z,3.57
2022-08-21T19:28:33.463Z,3.60
2022-08-21T19:31:16.300Z,3.03
2022-08-21T19:34:20.533Z,3.80
2022-08-21T19:36:47.614Z,3.42
2022-08-21T19:39:17.661Z,3.03
2022-08-21T19:41:50.620Z,3.35
2022-08-21T19:44:24.797Z,3.67
2022-08-21T19:46:54.923Z,3.25
2022-08-21T19:49:33.650Z,3.97
2022-08-21T19:52:02.138Z,3.37
2022-08-21T19:54:40.400Z,3.65
2022-08-21T19:57:12.051Z,3.40
2022-08-21T19:59:41.047Z,3.60
2022-08-21T20:02:12.356Z,3.90
2022-08-21T20:04:39.625Z,3.77
2022-08-21T20:07:25.152Z,3.45
2022-08-21T20:12:45.265Z,4.30
2022-08-21T20:15:13.524Z,4.03
2022-08-21T20:17:51.942Z,3.80
2022-08-21T20:20:20.403Z,3.58
2022-08-21T20:22:49.986Z,3.53
2022-08-21T20:25:17.209Z,4.10
2022-08-21T20:27:48.506Z,4.40
2022-08-21T20:30:15.724Z,4.23
2022-08-21T20:32:49.855Z,3.33
2022-08-21T20:35:20.910Z,3.47
2022-08-21T20:37:58.646Z,3.88
2022-08-21T20:40:32.057Z,3.63
2022-08-21T20:43:00.930Z,3.97
2022-08-21T20:45:31.910Z,3.58
2022-08-21T20:51:32.565Z,3.85
2022-08-21T20:54:09.305Z,3.58
2022-08-21T20:56:38.247Z,3.73
2022-08-21T20:59:20.006Z,4.32
2022-08-21T21:01:56.560Z,4.22
2022-08-21T21:04:40.607Z,3.67
2022-08-21T21:07:17.092Z,4.15
2022-08-21T21:09:48.117Z,4.17
2022-08-21T21:12:27.629Z,3.15
2022-08-21T21:14:58.853Z,3.85
2022-08-21T21:17:47.180Z,3.67
2022-08-21T21:20:24.941Z,3.75
2022-08-21T21:23:09.113Z,3.37
2022-08-21T21:25:45.739Z,3.70
2022-08-21T21:28:30.594Z,3.58
2022-08-21T21:30:58.073Z,3.80
2022-08-21T21:33:25.629Z,3.90
2022-08-21T21:36:12.607Z,3.17
2022-08-21T21:38:53.517Z,3.95
2022-08-21T21:41:26.407Z,4.32
2022-08-21T21:44:05.864Z,4.53
2022-08-21T21:46:46.135Z,3.80
2022-08-21T21:49:24.531Z,3.53
2022-08-21T21:52:00.661Z,3.65
2022-08-21T21:54:51.833Z,3.80
2022-08-21T21:57:43.057Z,3.78
2022-08-21T22:00:20.284Z,4.13
2022-08-21T23:54:11.642Z,4.22
2022-08-21T23:57:51.633Z,3.38
